Time;durP1;ratioP1;P1;durP2;ratioP2;P2;SDS_P1;SDS_P2;PMS_P1;PMS_P2;Temp;Humidity;BMP_temperature;BMP_pressure;BME280_temperature;BME280_humidity;BME280_pressure;Samples;Min_cycle;Max_cycle;Signal;HPM_P1;HPM_P2
2022/03/19 00:04:05;;;;;;;1.55;0.40;;;18.80;52.10;;;;;;4879657;28;20093;-91
2022/03/19 00:10:16;;;;;;;2.58;0.47;;;18.50;51.60;;;;;;5122474;23;20066;-88
2022/03/19 00:12:42;;;;;;;1.98;0.40;;;18.80;51.80;;;;;;4954815;29;20055;-89
2022/03/19 00:15:20;;;;;;;3.28;0.60;;;18.80;51.80;;;;;;4936785;29;20047;-88
2022/03/19 00:17:45;;;;;;;3.42;0.60;;;18.80;51.80;;;;;;4936923;29;20475;-89
2022/03/19 00:20:14;;;;;;;1.67;0.40;;;18.80;51.80;;;;;;4954557;29;20170;-90
2022/03/19 00:22:40;;;;;;;3.63;0.50;;;18.80;51.80;;;;;;4953782;29;20043;-91
2022/03/19 00:25:09;;;;;;;2.45;0.40;;;18.80;52.00;;;;;;4936858;29;20066;-88
2022/03/19 00:27:34;;;;;;;1.88;0.40;;;18.80;51.80;;;;;;4937306;29;20061;-89
2022/03/19 00:30:04;;;;;;;2.63;0.50;;;18.70;51.80;;;;;;4954920;29;20043;-89
2022/03/19 04:17:53;;;;;;;1.67;0.45;;;18.20;51.80;;;;;;4857119;29;20165;-88
2022/03/19 05:20:05;;;;;;;1.17;0.43;;;17.80;51.50;;;;;;4879028;29;20181;-89
2022/03/19 05:22:40;;;;;;;1.27;0.30;;;18.20;52.10;;;;;;4878870;29;20124;-89
2022/03/19 06:02:45;;;;;;;1.50;0.43;;;17.80;51.50;;;;;;4956169;29;20050;-88
2022/03/19 06:09:49;;;;;;;1.85;0.43;;;17.00;51.10;;;;;;4876807;29;20072;-88
2022/03/19 06:12:17;;;;;;;1.60;0.50;;;18.10;51.70;;;;;;4862085;29;20577;-88
2022/03/19 06:18:39;;;;;;;1.67;0.50;;;18.10;51.70;;;;;;4877430;29;20101;-87
2022/03/19 06:21:04;;;;;;;3.30;0.50;;;17.70;51.50;;;;;;4861316;29;20069;-87
2022/03/19 06:23:30;;;;;;;2.38;0.70;;;17.80;51.60;;;;;;4874706;29;20092;-87
2022/03/19 06:25:56;;;;;;;1.95;0.50;;;17.70;51.70;;;;;;4886209;29;20078;-88
2022/03/19 06:32:26;;;;;;;1.85;0.40;;;18.00;51.60;;;;;;4868791;29;20602;-88
2022/03/19 06:35:04;;;;;;;1.25;0.40;;;17.20;51.60;;;;;;4853036;29;20156;-87
2022/03/19 06:38:24;;;;;;;1.33;0.40;;;18.00;51.70;;;;;;4876374;29;20088;-87
2022/03/19 06:41:05;;;;;;;1.05;0.40;;;17.20;51.10;;;;;;4820361;29;20306;-88
2022/03/19 06:43:34;;;;;;;2.03;0.40;;;16.10;50.90;;;;;;4804757;29;20056;-88
2022/03/19 06:52:17;;;;;;;1.60;0.43;;;17.50;51.50;;;;;;4877089;29;20130;-88
2022/03/19 06:54:42;;;;;;;1.73;0.35;;;18.90;52.40;;;;;;4877536;29;20053;-89
2022/03/19 06:57:39;;;;;;;1.50;0.30;;;19.20;52.40;;;;;;4860965;29;20528;-89
2022/03/19 07:00:14;;;;;;;1.02;0.40;;;17.70;51.40;;;;;;4876510;29;20656;-89
2022/03/19 07:02:46;;;;;;;1.15;0.30;;;17.90;52.30;;;;;;4861474;29;20041;-89
2022/03/19 07:05:12;;;;;;;0.90;0.25;;;15.70;50.50;;;;;;4876404;29;20056;-88
2022/03/19 07:08:08;;;;;;;1.52;0.30;;;18.80;52.50;;;;;;4876605;29;20100;-89
2022/03/19 07:10:55;;;;;;;2.03;0.40;;;18.00;51.60;;;;;;4876482;29;20052;-89
2022/03/19 07:13:36;;;;;;;1.05;0.30;;;17.50;51.70;;;;;;4877299;29;20049;-90
2022/03/19 07:16:17;;;;;;;1.67;0.40;;;17.90;52.10;;;;;;4877043;29;20060;-89
2022/03/19 07:19:14;;;;;;;1.00;0.35;;;19.20;52.40;;;;;;4930283;29;20142;-90
2022/03/19 07:21:41;;;;;;;1.17;0.30;;;17.30;51.10;;;;;;4933820;29;20055;-89
2022/03/19 07:24:28;;;;;;;1.65;0.40;;;18.90;52.50;;;;;;4932461;29;20056;-90
2022/03/19 07:27:09;;;;;;;1.27;0.50;;;18.00;52.00;;;;;;4932745;29;20433;-89
2022/03/19 07:29:40;;;;;;;1.55;0.35;;;15.70;50.40;;;;;;4915532;29;20059;-89
2022/03/19 07:32:10;;;;;;;0.88;0.22;;;17.90;51.70;;;;;;4916303;29;20040;-89
2022/03/19 07:34:44;;;;;;;1.98;0.45;;;16.80;51.00;;;;;;4916742;29;20083;-88
2022/03/19 07:37:12;;;;;;;0.65;0.30;;;15.50;50.30;;;;;;4914884;29;20117;-87
2022/03/19 07:39:39;;;;;;;1.20;0.50;;;19.10;52.10;;;;;;4929463;29;20051;-87
2022/03/19 07:42:09;;;;;;;1.17;0.38;;;17.50;51.40;;;;;;4933734;29;20500;-86
2022/03/19 07:44:40;;;;;;;0.77;0.40;;;18.60;51.90;;;;;;4932817;29;20055;-85
2022/03/19 07:47:06;;;;;;;1.38;0.30;;;17.90;51.50;;;;;;4933699;29;20071;-88
2022/03/19 07:49:45;;;;;;;1.63;0.40;;;19.30;52.60;;;;;;4917171;29;20044;-87
2022/03/19 07:52:11;;;;;;;2.30;0.50;;;16.80;51.50;;;;;;4934397;29;20094;-87
2022/03/19 07:54:37;;;;;;;1.70;0.30;;;17.70;51.60;;;;;;4933841;29;20103;-87
2022/03/19 07:57:10;;;;;;;1.00;0.35;;;19.10;52.20;;;;;;4933358;29;20420;-88
2022/03/19 07:59:57;;;;;;;1.27;0.40;;;17.80;52.10;;;;;;4934417;29;20551;-90
2022/03/19 08:02:29;;;;;;;1.58;0.57;;;17.70;51.50;;;;;;4935036;29;20040;-88
2022/03/19 08:05:04;;;;;;;0.95;0.35;;;18.50;52.00;;;;;;4934824;29;20051;-88
2022/03/19 08:07:41;;;;;;;1.23;0.43;;;16.70;50.90;;;;;;4929831;29;20123;-88
2022/03/19 08:14:14;;;;;;;1.23;0.30;;;17.20;51.10;;;;;;4935994;29;20035;-89
2022/03/19 08:17:11;;;;;;;;;;;17.90;51.50;;;;;;4910953;29;20056;-90
2022/03/19 08:23:23;;;;;;;0.90;0.32;;;17.90;51.70;;;;;;4920907;29;20235;-89
2022/03/19 08:26:33;;;;;;;1.63;0.55;;;18.00;51.50;;;;;;4916387;29;20055;-90
2022/03/19 08:29:05;;;;;;;1.83;0.50;;;18.60;51.80;;;;;;4932772;29;20373;-90
2022/03/19 08:32:11;;;;;;;1.73;0.60;;;19.20;52.50;;;;;;4900920;29;20070;-90
2022/03/19 08:41:18;;;;;;;2.22;0.45;;;18.90;51.90;;;;;;4876015;29;20060;-90
2022/03/19 08:47:45;;;;;;;1.92;0.50;;;18.00;51.40;;;;;;6077373;23;20078;-88
2022/03/19 08:53:52;;;;;;;1.13;0.32;;;18.10;51.30;;;;;;4911341;29;20056;-89
2022/03/19 08:56:41;;;;;;;1.35;0.30;;;17.40;51.00;;;;;;4873540;29;20509;-87
2022/03/19 08:59:22;;;;;;;1.83;0.30;;;18.40;51.50;;;;;;4913167;29;20087;-89
2022/03/19 09:02:17;;;;;;;1.45;0.52;;;19.30;52.30;;;;;;4914977;29;20095;-88
2022/03/19 09:04:49;;;;;;;1.67;0.50;;;17.60;51.00;;;;;;4904422;29;20139;-88
2022/03/19 09:07:21;;;;;;;1.42;0.40;;;19.30;52.20;;;;;;4914764;29;20052;-89
2022/03/19 09:09:52;;;;;;;2.78;0.65;;;18.50;52.30;;;;;;4913250;29;20067;-89
2022/03/19 09:12:37;;;;;;;2.38;0.60;;;17.80;51.70;;;;;;4915520;29;20043;-88
2022/03/19 09:15:12;;;;;;;1.75;0.30;;;17.80;51.10;;;;;;4908963;29;20059;-88
2022/03/19 09:17:50;;;;;;;0.82;0.30;;;18.00;51.30;;;;;;4898468;29;20127;-88
2022/03/19 09:20:36;;;;;;;1.17;0.38;;;17.80;51.40;;;;;;4913362;29;20092;-88
2022/03/19 09:23:09;;;;;;;2.65;0.90;;;17.50;50.90;;;;;;4915103;29;20056;-88
2022/03/19 09:25:37;;;;;;;2.67;0.40;;;18.80;51.60;;;;;;4914017;29;20107;-88
2022/03/19 09:28:06;;;;;;;1.70;0.47;;;16.50;50.30;;;;;;4914160;29;20056;-87
2022/03/19 09:33:04;;;;;;;4.55;0.32;;;18.30;51.10;;;;;;4954516;23;20054;-87
2022/03/19 09:35:29;;;;;;;2.33;0.40;;;18.30;51.10;;;;;;4951985;29;20051;-86
2022/03/19 09:37:55;;;;;;;2.95;0.50;;;19.60;51.70;;;;;;4951151;29;20035;-87
2022/03/19 09:40:21;;;;;;;1.77;0.43;;;18.30;51.00;;;;;;4934772;29;20130;-86
2022/03/19 09:42:48;;;;;;;1.27;0.50;;;18.30;51.00;;;;;;4953387;28;20711;-84
2022/03/19 09:45:23;;;;;;;10.90;2.30;;;18.30;50.90;;;;;;4945884;29;20506;-85
2022/03/19 09:47:51;;;;;;;9.52;1.80;;;18.30;50.40;;;;;;4932969;29;20051;-86
2022/03/19 09:50:17;;;;;;;6.70;1.60;;;18.30;50.20;;;;;;4935815;29;20476;-87
2022/03/19 09:52:43;;;;;;;9.32;1.33;;;18.30;50.40;;;;;;4937075;29;20043;-87
2022/03/19 09:55:13;;;;;;;5.70;1.80;;;18.40;50.40;;;;;;4934961;29;20078;-87
2022/03/19 10:01:40;;;;;;;4.63;1.05;;;18.70;50.40;;;;;;4952329;29;20075;-87
2022/03/19 10:08:45;;;;;;;;;;;;;;;;;;;;;
2022/03/19 10:09:04;;;;;;;7.90;1.20;;;18.20;49.90;;;;;;4894599;29;20873;-86
2022/03/19 10:11:37;;;;;;;7.78;1.35;;;18.60;50.00;;;;;;4935725;29;20150;-87
2022/03/19 10:14:06;;;;;;;11.20;1.05;;;18.40;49.90;;;;;;4935001;29;20122;-81
2022/03/19 10:16:35;;;;;;;5.70;1.55;;;18.50;50.00;;;;;;4918754;29;20122;-85
2022/03/19 10:36:36;;;;;;;4.07;0.98;;;17.70;49.10;;;;;;4857181;29;20118;-83
2022/03/19 10:39:21;;;;;;;2.60;0.70;;;18.70;49.60;;;;;;4911022;29;20168;-83
2022/03/19 10:41:48;;;;;;;4.10;0.80;;;18.70;49.50;;;;;;4910156;29;20104;-84
2022/03/19 10:44:21;;;;;;;5.05;1.08;;;18.80;49.40;;;;;;4908809;29;20048;-83
2022/03/19 10:47:22;;;;;;;3.90;0.88;;;18.80;49.40;;;;;;4907342;29;20080;-82
2022/03/19 10:50:33;;;;;;;4.68;1.08;;;18.80;49.40;;;;;;4840202;29;20069;-83
2022/03/19 10:53:14;;;;;;;3.45;0.73;;;18.60;49.20;;;;;;4856878;29;20056;-83
2022/03/19 10:59:24;;;;;;;4.60;0.90;;;18.30;48.90;;;;;;4869332;29;20064;-80
2022/03/19 11:01:52;;;;;;;7.03;1.17;;;17.80;48.60;;;;;;4872704;29;20053;-79
2022/03/19 11:04:26;;;;;;;5.20;1.20;;;16.50;47.60;;;;;;4829172;29;20462;-78
2022/03/19 11:06:55;;;;;;;5.80;0.90;;;18.90;48.80;;;;;;4869624;29;20580;-80
2022/03/19 11:13:15;;;;;;;4.35;0.93;;;18.90;48.50;;;;;;4865843;29;20583;-81
2022/03/19 11:19:56;;;;;;;4.10;0.70;;;19.00;48.50;;;;;;4860993;29;20056;-81
2022/03/19 11:22:59;;;;;;;4.18;0.68;;;19.10;48.40;;;;;;4860084;29;20061;-81
2022/03/19 11:26:00;;;;;;;4.93;0.70;;;18.50;48.10;;;;;;4873973;29;20061;-82
2022/03/19 11:36:11;;;;;;;4.60;0.82;;;18.40;47.70;;;;;;4814758;29;20107;-82
2022/03/19 11:39:17;;;;;;;6.03;1.20;;;18.80;48.10;;;;;;4794473;29;20057;-83
2022/03/19 11:45:41;;;;;;;4.75;0.90;;;19.00;48.30;;;;;;4837204;29;20036;-82
2022/03/19 11:52:03;;;;;;;3.70;0.90;;;18.70;47.50;;;;;;4855621;29;20112;-81
2022/03/19 11:55:13;;;;;;;3.50;0.70;;;18.20;47.20;;;;;;4753714;30;20066;-82
2022/03/19 11:57:50;;;;;;;3.03;0.85;;;19.10;47.60;;;;;;4778066;30;20091;-82
2022/03/19 12:00:29;;;;;;;4.40;0.80;;;20.40;48.20;;;;;;4800168;29;20514;-82
2022/03/19 12:03:16;;;;;;;4.35;0.90;;;20.40;48.00;;;;;;4833801;29;20065;-82
2022/03/19 12:05:48;;;;;;;2.90;0.57;;;19.40;47.90;;;;;;4836759;29;20503;-82
2022/03/19 12:12:28;;;;;;;2.20;0.50;;;19.00;47.20;;;;;;4817997;29;20058;-80
2022/03/19 12:15:25;;;;;;;;;;;;;;;;;;;;;
2022/03/19 12:18:46;;;;;;;3.08;0.65;;;18.90;47.10;;;;;;4841461;29;20065;-81
2022/03/19 12:21:46;;;;;;;2.42;0.60;;;18.20;46.70;;;;;;4864619;29;20048;-82
2022/03/19 12:31:46;;;;;;;3.42;0.80;;;19.00;47.00;;;;;;4992337;23;20113;-82
2022/03/19 12:35:04;;;;;;;3.67;0.50;;;19.10;47.10;;;;;;4934284;29;20106;-83
2022/03/19 12:48:27;;;;;;;2.85;0.50;;;18.30;46.50;;;;;;4943071;29;20159;-82
2022/03/19 12:55:44;;;;;;;2.60;0.50;;;19.10;46.90;;;;;;4942415;29;20486;-82
2022/03/19 12:59:22;;;;;;;;;;;;;;;;;;;;;
2022/03/19 13:03:10;;;;;;;1.42;0.30;;;19.00;46.70;;;;;;4892273;29;20891;-83
2022/03/19 13:17:53;;;;;;;2.92;0.47;;;19.00;46.30;;;;;;4951665;28;20102;-84
2022/03/19 13:25:21;;;;;;;;;;;;;;;;;;;;;
2022/03/19 13:32:42;;;;;;;3.83;0.60;;;18.50;44.50;;;;;;4894121;29;20143;-82
2022/03/19 13:38:35;;;;;;;3.45;0.60;;;18.80;45.20;;;;;;4851156;29;20944;-81
2022/03/19 13:49:22;;;;;;;2.15;0.50;;;19.00;45.50;;;;;;4855291;29;20217;-82
2022/03/19 13:52:47;;;;;;;5.47;0.55;;;18.10;45.10;;;;;;4856078;29;20045;-82
2022/03/19 13:56:02;;;;;;;2.30;0.38;;;18.10;45.30;;;;;;4848092;29;20113;-82
2022/03/19 13:59:14;;;;;;;3.28;0.45;;;18.00;45.30;;;;;;4857436;29;20053;-82
2022/03/19 14:01:45;;;;;;;4.57;0.50;;;18.70;45.60;;;;;;4812221;29;20137;-83
2022/03/19 14:08:22;;;;;;;1.90;0.40;;;18.40;45.50;;;;;;4792051;29;20456;-82
2022/03/19 14:11:13;;;;;;;3.72;0.73;;;20.30;46.80;;;;;;4807797;29;20071;-83
2022/03/19 14:20:09;;;;;;;;;;;;;;;;;;;;;
2022/03/19 14:23:13;;;;;;;2.65;0.50;;;19.30;46.70;;;;;;4885591;29;20048;-82
2022/03/19 14:25:38;;;;;;;2.22;0.40;;;18.80;46.40;;;;;;4894025;29;20532;-82
2022/03/19 14:28:32;;;;;;;3.97;0.40;;;18.20;45.80;;;;;;4878831;29;20088;-82
2022/03/19 14:31:00;;;;;;;1.45;0.40;;;19.20;46.10;;;;;;4878398;29;20483;-82
2022/03/19 15:07:21;;;;;;;1.15;0.30;;;19.20;46.30;;;;;;4953495;29;20038;-83
2022/03/19 15:29:15;;;;;;;2.30;0.30;;;17.90;45.40;;;;;;4933653;29;20043;-83
2022/03/19 16:06:59;;;;;;;1.83;0.40;;;19.60;46.30;;;;;;4852873;29;20044;-83
2022/03/19 16:32:06;;;;;;;2.35;0.40;;;20.10;46.00;;;;;;4949843;29;20114;-84
2022/03/19 16:51:46;;;;;;;0.88;0.20;;;19.60;45.70;;;;;;5359175;23;20174;-84
2022/03/19 16:55:12;;;;;;;2.28;0.40;;;19.70;45.80;;;;;;4917082;29;20514;-82
2022/03/19 16:58:13;;;;;;;1.42;0.30;;;18.80;45.30;;;;;;4929124;29;20063;-84
2022/03/19 17:00:47;;;;;;;1.50;0.40;;;18.70;45.40;;;;;;4948410;23;20055;-85
2022/03/19 17:03:22;;;;;;;2.47;0.22;;;19.30;46.10;;;;;;4932403;29;20047;-85
2022/03/19 17:05:51;;;;;;;1.38;0.30;;;19.70;46.50;;;;;;4949027;29;20050;-84
2022/03/19 17:08:50;;;;;;;2.03;0.40;;;19.60;46.50;;;;;;4954817;29;20050;-85
2022/03/19 17:11:16;;;;;;;1.88;0.30;;;19.00;45.60;;;;;;4956338;29;20130;-85
2022/03/19 17:13:41;;;;;;;1.48;0.32;;;17.20;44.80;;;;;;4955925;29;20123;-85
2022/03/19 17:16:10;;;;;;;0.43;0.20;;;20.70;47.00;;;;;;4932357;23;20055;-84
2022/03/19 17:18:35;;;;;;;0.98;0.20;;;20.30;46.40;;;;;;4922763;29;20400;-85
2022/03/19 17:21:16;;;;;;;1.05;0.22;;;21.20;46.90;;;;;;4923178;29;20047;-85
2022/03/19 17:23:53;;;;;;;0.77;0.20;;;19.30;46.20;;;;;;4892249;29;20131;-85
2022/03/19 17:33:28;;;;;;;;;;;;;;;;;;;;;
2022/03/19 17:40:23;;;;;;;2.33;0.30;;;18.80;45.80;;;;;;4806729;29;20095;-85
2022/03/19 17:43:56;;;;;;;3.28;0.20;;;19.60;46.10;;;;;;4822261;29;20070;-86
2022/03/19 17:47:17;;;;;;;5.35;0.20;;;19.80;46.30;;;;;;4795389;29;20588;-94
2022/03/19 18:12:07;;;;;;;3.90;0.60;;;19.60;46.40;;;;;;5071605;23;20055;-87
2022/03/19 19:35:24;;;;;;;3.80;0.90;;;18.60;45.90;;;;;;4929943;29;20056;-85
2022/03/19 22:04:37;;;;;;;2.33;0.50;;;19.00;46.40;;;;;;5058662;23;20066;-87
2022/03/19 22:18:50;;;;;;;1.63;0.43;;;19.50;46.70;;;;;;4880820;29;20528;-86
2022/03/19 22:22:29;;;;;;;;;;;;;;;;;;;;;
2022/03/19 22:33:08;;;;;;;2.03;0.80;;;18.50;46.20;;;;;;4945724;23;20090;-84
2022/03/19 22:35:34;;;;;;;1.30;0.40;;;18.70;46.30;;;;;;4936392;29;20051;-84
2022/03/19 22:38:02;;;;;;;1.25;0.35;;;19.00;46.50;;;;;;4954582;29;20059;-84
2022/03/19 22:40:30;;;;;;;1.25;0.30;;;19.00;46.50;;;;;;4938907;29;20051;-84
2022/03/19 22:42:59;;;;;;;1.45;0.40;;;19.00;46.50;;;;;;4938375;29;20090;-86
